createdAt,value
2019-03-05T00:00:20.634Z,97997.88
2019-03-05T00:01:30.228Z,97999.58
2019-03-05T00:02:34.605Z,97994.72
2019-03-05T00:03:38.928Z,97999.54
2019-03-05T00:04:43.199Z,97999.69
2019-03-05T00:05:47.515Z,98004.75
2019-03-05T00:06:51.875Z,98000.63
2019-03-05T00:07:56.407Z,98008.05
2019-03-05T00:09:00.609Z,98007.25
2019-03-05T00:10:05.599Z,98015.45
2019-03-05T00:11:09.953Z,98011.95
2019-03-05T00:12:14.245Z,98014.67
2019-03-05T00:13:18.754Z,98022.77
2019-03-05T00:14:25.140Z,98025.16
2019-03-05T00:15:29.975Z,98024.63
2019-03-05T00:16:34.243Z,98021.47
2019-03-05T00:17:38.582Z,98021.58
2019-03-05T00:18:42.960Z,98017.73
2019-03-05T00:19:47.139Z,98023.09
2019-03-05T00:20:51.664Z,98024.14
2019-03-05T00:21:56.060Z,98021.47
2019-03-05T00:23:00.386Z,98020.48
2019-03-05T00:25:11.915Z,98028.19
2019-03-05T00:26:16.538Z,98028.16
2019-03-05T00:27:20.920Z,98036.67
2019-03-05T00:28:35.036Z,98038.17
2019-03-05T00:29:57.836Z,98039.72
2019-03-05T00:31:09.477Z,98039.80
2019-03-05T00:32:13.882Z,98046.33
2019-03-05T00:33:26.813Z,98041.51
2019-03-05T00:34:38.299Z,98048.51
2019-03-05T00:37:04.842Z,98049.84
2019-03-05T00:38:14.745Z,98059.48
2019-03-05T00:39:36.581Z,98049.53
2019-03-05T00:40:54.709Z,98048.30
2019-03-05T00:42:08.754Z,98059.77
2019-03-05T00:43:18.402Z,98050.66
2019-03-05T00:44:46.853Z,98064.07
2019-03-05T00:46:39.010Z,98062.91
2019-03-05T00:49:56.656Z,98068.37
2019-03-05T00:51:24.278Z,98073.39
2019-03-05T00:52:28.457Z,98071.13
2019-03-05T00:53:49.110Z,98077.33
2019-03-05T00:56:08.005Z,98078.95
2019-03-05T00:57:25.254Z,98084.21
2019-03-05T00:58:41.093Z,98096.70
2019-03-05T01:00:06.215Z,98094.70
2019-03-05T01:03:23.410Z,98103.94
2019-03-05T01:05:45.590Z,98104.06
2019-03-05T01:06:49.965Z,98114.75
2019-03-05T01:07:54.430Z,98110.09
2019-03-05T01:08:58.883Z,98114.11
2019-03-05T01:10:03.197Z,98120.50
2019-03-05T01:11:07.586Z,98116.09
2019-03-05T01:12:11.992Z,98127.47
2019-03-05T01:13:16.399Z,98124.47
2019-03-05T01:14:21.233Z,98114.70
2019-03-05T01:15:25.710Z,98128.04
2019-03-05T01:16:31.388Z,98130.95
2019-03-05T01:17:35.694Z,98128.76
2019-03-05T01:18:40.137Z,98127.59
2019-03-05T01:19:44.614Z,98128.47
2019-03-05T01:20:48.967Z,98128.06
2019-03-05T01:21:53.149Z,98131.88
2019-03-05T01:22:57.387Z,98137.13
2019-03-05T01:24:01.858Z,98141.38
2019-03-05T01:25:06.355Z,98136.66
2019-03-05T01:26:10.803Z,98140.91
2019-03-05T01:27:15.074Z,98143.81
2019-03-05T01:28:19.430Z,98136.43
2019-03-05T01:29:23.861Z,98150.56
2019-03-05T01:30:32.713Z,98153.96
2019-03-05T01:31:41.875Z,98155.77
2019-03-05T01:32:50.822Z,98151.77
2019-03-05T01:33:59.194Z,98155.53
2019-03-05T01:35:10.500Z,98168.27
2019-03-05T01:36:17.954Z,98162.16
2019-03-05T01:37:22.400Z,98160.64
2019-03-05T01:38:26.824Z,98162.79
2019-03-05T01:39:43.543Z,98164.66
2019-03-05T01:40:52.218Z,98165.41
2019-03-05T01:41:56.623Z,98171.86
2019-03-05T01:43:00.972Z,98167.64
2019-03-05T01:44:05.400Z,98172.80
2019-03-05T01:45:11.279Z,98172.67
2019-03-05T01:46:15.624Z,98174.38
2019-03-05T01:47:19.885Z,98176.67
2019-03-05T01:48:24.230Z,98183.67
2019-03-05T01:49:28.497Z,98180.64
2019-03-05T01:50:32.907Z,98180.92
2019-03-05T01:51:37.160Z,98187.55
2019-03-05T01:52:41.523Z,98191.84
2019-03-05T01:53:45.836Z,98197.06
2019-03-05T01:54:50.112Z,98194.52
2019-03-05T01:55:54.364Z,98195.33
2019-03-05T01:56:58.714Z,98196.91
2019-03-05T01:58:03.159Z,98198.00
2019-03-05T01:59:07.475Z,98195.86
2019-03-05T02:00:12.490Z,98196.43
2019-03-05T02:01:16.945Z,98197.77
2019-03-05T02:02:21.304Z,98203.12
2019-03-05T02:03:25.774Z,98201.39
2019-03-05T02:04:30.125Z,98209.12
2019-03-05T02:05:34.837Z,98206.20
2019-03-05T02:06:39.427Z,98208.75
2019-03-05T02:07:43.746Z,98209.41
2019-03-05T02:08:48.086Z,98219.63
2019-03-05T02:09:52.574Z,98217.23
2019-03-05T02:10:56.796Z,98217.29
2019-03-05T02:12:01.115Z,98219.00
2019-03-05T02:13:05.492Z,98218.23
2019-03-05T02:14:09.852Z,98223.34
2019-03-05T02:15:14.349Z,98227.79
2019-03-05T02:16:18.654Z,98232.52
2019-03-05T02:17:23.121Z,98232.80
2019-03-05T02:18:27.638Z,98229.84
2019-03-05T02:19:37.697Z,98239.95
2019-03-05T02:20:42.158Z,98245.88
2019-03-05T02:21:46.525Z,98236.65
2019-03-05T02:22:55.343Z,98233.89
2019-03-05T02:24:10.012Z,98248.19
2019-03-05T02:26:28.495Z,98253.02
2019-03-05T02:27:57.671Z,98254.26
2019-03-05T02:30:12.929Z,98251.77
2019-03-05T02:31:28.662Z,98258.73
2019-03-05T02:32:43.887Z,98270.29
2019-03-05T02:33:59.121Z,98270.27
2019-03-05T02:35:20.116Z,98263.94
2019-03-05T02:37:37.762Z,98275.55
2019-03-05T02:39:00.724Z,98278.54
2019-03-05T02:40:20.239Z,98276.97
2019-03-05T02:41:33.347Z,98280.02
2019-03-05T02:42:53.086Z,98283.73
2019-03-05T02:44:09.673Z,98289.13
2019-03-05T02:45:31.323Z,98290.41
2019-03-05T02:46:43.456Z,98294.63
2019-03-05T02:47:57.532Z,98295.28
2019-03-05T02:49:17.612Z,98299.75
2019-03-05T02:51:35.121Z,98298.59
2019-03-05T02:52:50.572Z,98318.68
2019-03-05T02:54:07.351Z,98313.28
2019-03-05T02:56:20.102Z,98323.64
2019-03-05T02:57:22.880Z,98326.92
2019-03-05T02:58:25.665Z,98332.97
2019-03-05T02:59:29.925Z,98332.39
2019-03-05T03:00:40.385Z,98320.24
2019-03-05T03:01:53.624Z,98332.55
2019-03-05T03:03:01.726Z,98339.81
2019-03-05T03:04:09.817Z,98341.31
2019-03-05T03:05:24.062Z,98329.94
2019-03-05T03:06:31.341Z,98353.75
2019-03-05T03:07:35.832Z,98350.66
2019-03-05T03:08:40.118Z,98350.50
2019-03-05T03:10:16.914Z,98349.98
2019-03-05T03:11:21.194Z,98349.98
2019-03-05T03:12:25.644Z,98361.63
2019-03-05T03:13:30.046Z,98366.80
2019-03-05T03:14:34.426Z,98369.25
2019-03-05T03:15:38.723Z,98365.48
2019-03-05T03:16:42.997Z,98378.54
2019-03-05T03:17:47.790Z,98379.81
2019-03-05T03:18:52.171Z,98385.57
2019-03-05T03:19:56.499Z,98388.86
2019-03-05T03:21:00.784Z,98397.07
2019-03-05T03:22:05.420Z,98394.20
2019-03-05T03:23:09.814Z,98390.56
2019-03-05T03:24:14.117Z,98398.51
2019-03-05T03:25:20.641Z,98406.29
2019-03-05T03:26:25.018Z,98398.87
2019-03-05T03:27:29.525Z,98405.38
2019-03-05T03:28:33.926Z,98404.56
2019-03-05T03:29:38.268Z,98413.19
2019-03-05T03:30:42.606Z,98412.87
2019-03-05T03:31:46.856Z,98412.63
2019-03-05T03:32:51.305Z,98421.68
2019-03-05T03:33:55.687Z,98416.80
2019-03-05T03:34:59.960Z,98428.29
2019-03-05T03:36:04.292Z,98424.52
2019-03-05T03:37:08.600Z,98427.92
2019-03-05T03:38:13.041Z,98427.47
2019-03-05T03:39:17.515Z,98436.75
2019-03-05T03:40:22.740Z,98437.86
2019-03-05T03:41:27.177Z,98432.22
2019-03-05T03:42:31.602Z,98434.30
2019-03-05T03:43:36.037Z,98437.16
2019-03-05T03:44:40.505Z,98443.08
2019-03-05T03:45:44.814Z,98441.38
2019-03-05T03:46:49.201Z,98451.31
2019-03-05T03:47:53.513Z,98451.83
2019-03-05T03:48:57.964Z,98450.89
2019-03-05T03:50:02.253Z,98449.70
2019-03-05T03:51:06.608Z,98453.75
2019-03-05T03:52:10.858Z,98459.31
2019-03-05T03:53:15.174Z,98456.52
2019-03-05T03:54:19.533Z,98462.28
2019-03-05T03:55:24.097Z,98457.69
2019-03-05T03:56:28.316Z,98460.50
2019-03-05T03:57:32.681Z,98465.55
2019-03-05T03:58:36.913Z,98463.81
2019-03-05T03:59:41.320Z,98467.74
2019-03-05T04:00:45.753Z,98473.89
2019-03-05T04:01:50.158Z,98472.68
2019-03-05T04:02:55.138Z,98476.27
2019-03-05T04:03:59.485Z,98475.82
2019-03-05T04:05:04.110Z,98477.67
2019-03-05T04:06:08.522Z,98475.75
2019-03-05T04:07:12.842Z,98489.50
2019-03-05T04:08:17.220Z,98487.13
2019-03-05T04:09:21.605Z,98488.77
2019-03-05T04:10:25.957Z,98491.84
2019-03-05T04:11:30.368Z,98489.02
2019-03-05T04:12:34.728Z,98496.58
2019-03-05T04:13:39.055Z,98497.02
2019-03-05T04:14:43.253Z,98497.44
2019-03-05T04:15:47.659Z,98503.69
2019-03-05T04:16:51.784Z,98509.44
2019-03-05T04:17:56.097Z,98503.39
2019-03-05T04:19:00.588Z,98511.70
2019-03-05T04:20:05.083Z,98511.25
2019-03-05T04:21:09.576Z,98518.06
2019-03-05T04:22:14.003Z,98512.21
2019-03-05T04:23:18.451Z,98520.81
2019-03-05T04:24:22.745Z,98520.92
2019-03-05T04:25:27.004Z,98521.33
2019-03-05T04:26:31.115Z,98538.56
2019-03-05T04:27:35.117Z,98527.55
2019-03-05T04:28:39.129Z,98540.48
2019-03-05T04:29:43.089Z,98531.55
2019-03-05T04:30:47.064Z,98543.41
2019-03-05T04:31:51.132Z,98543.45
2019-03-05T04:32:55.126Z,98544.13
2019-03-05T04:33:59.256Z,98551.53
2019-03-05T04:35:03.350Z,98553.50
2019-03-05T04:36:07.375Z,98556.90
2019-03-05T04:37:11.440Z,98549.34
2019-03-05T04:38:15.438Z,98557.16
2019-03-05T04:39:19.454Z,98570.27
2019-03-05T04:40:23.502Z,98566.08
2019-03-05T04:41:27.486Z,98561.34
2019-03-05T04:42:31.548Z,98565.89
2019-03-05T04:43:35.601Z,98568.55
2019-03-05T04:44:45.095Z,98571.74
2019-03-05T04:45:55.744Z,98571.71
2019-03-05T04:47:00.201Z,98565.16
2019-03-05T04:48:04.459Z,98582.19
2019-03-05T04:49:43.761Z,98578.00
2019-03-05T04:50:53.605Z,98590.52
2019-03-05T04:52:01.750Z,98591.50
2019-03-05T04:53:06.113Z,98577.34
2019-03-05T04:54:10.485Z,98581.23
2019-03-05T04:55:14.888Z,98593.05
2019-03-05T04:56:19.173Z,98601.65
2019-03-05T04:57:23.466Z,98598.87
2019-03-05T04:58:27.890Z,98605.24
2019-03-05T04:59:32.329Z,98593.76
2019-03-05T05:00:36.455Z,98607.09
2019-03-05T05:01:40.869Z,98611.20
2019-03-05T05:02:45.137Z,98608.45
2019-03-05T05:03:49.524Z,98616.75
2019-03-05T05:04:53.882Z,98625.18
2019-03-05T05:05:58.187Z,98614.81
2019-03-05T05:07:02.627Z,98625.88
2019-03-05T05:08:07.073Z,98628.14
2019-03-05T05:09:11.594Z,98628.23
2019-03-05T05:10:15.998Z,98635.11
2019-03-05T05:11:20.346Z,98631.58
2019-03-05T05:12:24.630Z,98627.39
2019-03-05T05:13:28.850Z,98634.44
2019-03-05T05:14:33.187Z,98633.66
2019-03-05T05:15:37.804Z,98635.41
2019-03-05T05:16:42.074Z,98640.96
2019-03-05T05:17:46.222Z,98639.84
2019-03-05T05:18:50.582Z,98636.75
2019-03-05T05:19:54.868Z,98648.02
2019-03-05T05:20:59.426Z,98651.78
2019-03-05T05:22:03.638Z,98651.18
2019-03-05T05:23:08.003Z,98654.86
2019-03-05T05:24:12.352Z,98656.21
2019-03-05T05:25:16.735Z,98665.03
2019-03-05T05:26:21.047Z,98656.52
2019-03-05T05:27:25.449Z,98663.67
2019-03-05T05:28:29.901Z,98668.59
2019-03-05T05:29:34.386Z,98677.43
2019-03-05T05:30:39.789Z,98671.91
2019-03-05T05:31:44.116Z,98682.59
2019-03-05T05:32:48.470Z,98681.77
2019-03-05T05:33:52.750Z,98681.47
2019-03-05T05:34:57.127Z,98682.80
2019-03-05T05:36:01.462Z,98689.95
2019-03-05T05:37:05.806Z,98693.86
2019-03-05T05:38:10.191Z,98696.74
2019-03-05T05:40:23.196Z,98699.11
2019-03-05T05:41:27.558Z,98707.70
2019-03-05T05:42:31.809Z,98710.98
2019-03-05T05:43:36.181Z,98710.68
2019-03-05T05:44:40.449Z,98715.20
2019-03-05T05:45:47.211Z,98718.08
2019-03-05T05:46:51.511Z,98713.05
2019-03-05T05:47:55.924Z,98728.31
2019-03-05T05:49:00.274Z,98729.03
2019-03-05T05:50:04.668Z,98728.02
2019-03-05T05:51:09.077Z,98732.22
2019-03-05T05:52:13.297Z,98736.44
2019-03-05T05:53:17.679Z,98748.44
2019-03-05T05:54:21.952Z,98754.38
2019-03-05T05:55:26.297Z,98751.41
2019-03-05T05:56:30.654Z,98749.44
2019-03-05T05:57:35.956Z,98756.44
2019-03-05T05:58:39.553Z,98756.13
2019-03-05T05:59:43.968Z,98753.17
2019-03-05T06:00:51.152Z,98759.11
2019-03-05T06:01:55.554Z,98755.70
2019-03-05T06:02:59.954Z,98758.08
2019-03-05T06:04:04.181Z,98766.16
2019-03-05T06:05:08.914Z,98769.13
2019-03-05T06:06:13.145Z,98766.03
2019-03-05T06:07:17.590Z,98779.70
2019-03-05T06:08:22.113Z,98775.70
2019-03-05T06:09:26.624Z,98771.48
2019-03-05T06:10:31.059Z,98774.36
2019-03-05T06:11:35.336Z,98790.46
2019-03-05T06:12:39.952Z,98782.25
2019-03-05T06:13:44.360Z,98788.22
2019-03-05T06:14:48.800Z,98788.02
2019-03-05T06:15:53.093Z,98795.92
2019-03-05T06:16:57.502Z,98808.23
2019-03-05T06:18:01.929Z,98808.53
2019-03-05T06:19:05.935Z,98803.71
2019-03-05T06:20:11.392Z,98808.31
2019-03-05T06:21:15.430Z,98814.67
2019-03-05T06:22:19.469Z,98817.98
2019-03-05T06:23:23.597Z,98809.67
2019-03-05T06:24:27.659Z,98822.28
2019-03-05T06:25:31.757Z,98822.59
2019-03-05T06:26:35.791Z,98821.86
2019-03-05T06:27:39.801Z,98827.81
2019-03-05T06:28:43.963Z,98832.84
2019-03-05T06:29:47.965Z,98836.12
2019-03-05T06:30:51.960Z,98838.06
2019-03-05T06:31:56.126Z,98844.73
2019-03-05T06:33:00.163Z,98843.00
2019-03-05T06:34:04.322Z,98849.34
2019-03-05T06:35:08.585Z,98860.44
2019-03-05T06:36:12.673Z,98859.83
2019-03-05T06:37:16.697Z,98856.65
2019-03-05T06:38:20.714Z,98867.19
2019-03-05T06:39:24.954Z,98865.05
2019-03-05T06:40:29.105Z,98866.26
2019-03-05T06:41:33.123Z,98870.28
2019-03-05T06:42:37.181Z,98871.10
2019-03-05T06:43:41.237Z,98872.83
2019-03-05T06:44:45.342Z,98877.24
2019-03-05T06:45:49.383Z,98879.92
2019-03-05T06:46:53.456Z,98882.59
2019-03-05T06:47:57.534Z,98885.95
2019-03-05T06:49:01.551Z,98875.59
2019-03-05T06:50:06.399Z,98887.59
2019-03-05T06:51:10.495Z,98888.44
2019-03-05T06:52:14.593Z,98893.46
2019-03-05T06:53:18.667Z,98896.22
2019-03-05T06:54:22.687Z,98892.31
2019-03-05T06:55:26.755Z,98890.16
2019-03-05T06:56:30.905Z,98905.14
2019-03-05T06:57:34.937Z,98908.33
2019-03-05T06:58:39.121Z,98909.24
2019-03-05T06:59:43.486Z,98914.35
2019-03-05T07:00:47.997Z,98919.81
2019-03-05T07:01:52.378Z,98913.13
2019-03-05T07:02:56.705Z,98918.05
2019-03-05T07:04:01.003Z,98921.22
2019-03-05T07:05:05.605Z,98923.38
2019-03-05T07:06:20.818Z,98926.06
2019-03-05T07:07:25.617Z,98931.60
2019-03-05T07:08:29.704Z,98934.16
2019-03-05T07:09:40.602Z,98944.53
2019-03-05T07:10:53.766Z,98936.84
2019-03-05T07:12:09.081Z,98950.49
2019-03-05T07:13:17.359Z,98949.23
2019-03-05T07:14:27.493Z,98953.45
2019-03-05T07:15:48.855Z,98958.25
2019-03-05T07:18:03.157Z,98957.34
2019-03-05T07:19:22.245Z,98969.95
2019-03-05T07:22:40.935Z,98980.02
2019-03-05T07:23:56.026Z,98985.52
2019-03-05T07:25:00.396Z,98987.23
2019-03-05T07:26:04.625Z,98988.58
2019-03-05T07:27:10.014Z,98987.86
2019-03-05T07:28:14.385Z,98982.40
2019-03-05T07:29:18.694Z,98985.50
2019-03-05T07:30:24.362Z,98993.50
2019-03-05T07:31:28.653Z,99001.52
2019-03-05T07:32:32.907Z,99007.23
2019-03-05T07:33:37.280Z,99014.31
2019-03-05T07:34:43.956Z,99019.36
2019-03-05T07:35:48.275Z,99030.44
2019-03-05T07:36:52.563Z,99026.84
2019-03-05T07:37:57.026Z,99026.67
2019-03-05T07:39:01.267Z,99029.54
2019-03-05T07:40:06.070Z,99033.23
2019-03-05T07:41:10.388Z,99038.59
2019-03-05T07:42:14.634Z,99034.18
2019-03-05T07:43:19.023Z,99033.45
2019-03-05T07:44:23.449Z,99040.47
2019-03-05T07:45:27.814Z,99040.26
2019-03-05T07:46:32.132Z,99042.44
2019-03-05T07:47:36.491Z,99046.09
2019-03-05T07:48:40.896Z,99049.02
2019-03-05T07:49:44.942Z,99047.19
2019-03-05T07:50:55.754Z,99058.67
2019-03-05T07:52:00.133Z,99054.47
2019-03-05T07:53:04.673Z,99056.20
2019-03-05T07:54:09.064Z,99064.21
2019-03-05T07:55:15.527Z,99057.46
2019-03-05T07:56:20.029Z,99062.59
2019-03-05T07:57:24.267Z,99073.38
2019-03-05T07:58:28.606Z,99062.19
2019-03-05T07:59:32.850Z,99058.30
2019-03-05T08:00:37.145Z,99071.32
2019-03-05T08:01:41.538Z,99065.08
2019-03-05T08:02:45.978Z,99068.25
2019-03-05T08:03:50.341Z,99075.34
2019-03-05T08:04:54.724Z,99075.94
2019-03-05T08:05:59.121Z,99078.81
2019-03-05T08:07:03.509Z,99080.75
2019-03-05T08:08:26.449Z,99082.70
2019-03-05T08:09:34.058Z,99088.53
2019-03-05T08:10:38.449Z,99091.62
2019-03-05T08:11:42.884Z,99083.73
2019-03-05T08:13:07.878Z,99085.56
2019-03-05T08:14:25.814Z,99089.75
2019-03-05T08:16:01.955Z,99090.83
2019-03-05T08:16:57.046Z,99091.44
2019-03-05T08:18:01.281Z,99090.21
2019-03-05T08:19:05.709Z,99096.78
2019-03-05T08:20:11.011Z,99109.47
2019-03-05T08:21:15.385Z,99104.06
2019-03-05T08:22:19.726Z,99108.70
2019-03-05T08:23:24.341Z,99119.45
2019-03-05T08:24:28.572Z,99121.77
2019-03-05T08:25:32.878Z,99127.20
2019-03-05T08:26:37.145Z,99127.75
2019-03-05T08:27:41.419Z,99135.75
2019-03-05T08:28:45.708Z,99138.47
2019-03-05T08:29:50.117Z,99143.80
2019-03-05T08:30:54.601Z,99152.45
2019-03-05T08:31:58.934Z,99149.78
2019-03-05T08:33:19.238Z,99154.71
2019-03-05T08:34:39.694Z,99160.05
2019-03-05T08:35:59.957Z,99161.97
2019-03-05T08:37:20.268Z,99164.56
2019-03-05T08:38:40.623Z,99170.03
2019-03-05T08:40:00.981Z,99176.14
2019-03-05T08:41:04.763Z,99174.83
2019-03-05T08:42:08.892Z,99177.78
2019-03-05T08:43:12.611Z,99171.19
2019-03-05T09:10:08.234Z,99225.50
2019-03-05T09:11:12.409Z,99236.31
2019-03-05T09:12:16.785Z,99229.92
2019-03-05T09:13:31.941Z,99234.62
2019-03-05T09:14:25.515Z,99237.52
2019-03-05T09:15:29.835Z,99239.80
2019-03-05T09:16:34.229Z,99231.81
2019-03-05T09:17:38.598Z,99236.92
2019-03-05T09:18:43.031Z,99247.94
2019-03-05T09:19:47.374Z,99248.19
2019-03-05T09:20:51.790Z,99253.32
2019-03-05T09:21:56.099Z,99249.73
2019-03-05T09:23:00.615Z,99256.30
2019-03-05T09:24:04.982Z,99263.38
2019-03-05T09:25:09.916Z,99259.41
2019-03-05T09:26:14.310Z,99265.70
2019-03-05T09:27:18.581Z,99274.25
2019-03-05T09:28:22.935Z,99277.64
2019-03-05T09:29:27.265Z,99284.85
2019-03-05T09:30:31.553Z,99285.03
2019-03-05T09:31:35.943Z,99279.70
2019-03-05T09:32:40.309Z,99283.29
2019-03-05T09:33:44.740Z,99284.84
2019-03-05T09:34:49.108Z,99292.05
2019-03-05T09:35:53.306Z,99287.22
2019-03-05T09:36:57.602Z,99299.03
2019-03-05T09:38:01.821Z,99295.54
2019-03-05T09:39:07.943Z,99299.45
2019-03-05T09:40:14.836Z,99297.89
2019-03-05T09:41:19.150Z,99299.34
2019-03-05T09:42:23.514Z,99303.88
2019-03-05T09:43:27.893Z,99302.93
2019-03-05T09:44:32.164Z,99307.47
2019-03-05T09:45:36.430Z,99312.91
2019-03-05T09:46:40.775Z,99308.36
2019-03-05T09:47:45.355Z,99311.78
2019-03-05T09:48:49.633Z,99321.02
2019-03-05T09:49:54.034Z,99313.02
2019-03-05T09:50:58.371Z,99328.03
2019-03-05T09:52:02.732Z,99326.58
2019-03-05T09:53:07.225Z,99332.72
2019-03-05T09:54:11.497Z,99339.83
2019-03-05T09:55:17.969Z,99338.14
2019-03-05T09:56:22.233Z,99345.39
2019-03-05T09:57:27.402Z,99344.34
2019-03-05T09:58:31.103Z,99355.88
2019-03-05T09:59:35.476Z,99358.89
2019-03-05T10:00:39.867Z,99362.07
2019-03-05T10:01:44.256Z,99355.01
2019-03-05T10:02:48.683Z,99366.31
2019-03-05T10:03:53.020Z,99361.29
2019-03-05T10:04:57.038Z,99365.60
2019-03-05T10:06:01.079Z,99375.56
2019-03-05T10:07:05.406Z,99377.17
2019-03-05T10:08:09.723Z,99365.22
2019-03-05T10:09:14.093Z,99363.70
2019-03-05T10:10:20.311Z,99378.89
2019-03-05T10:11:24.910Z,99378.54
2019-03-05T10:12:30.177Z,99380.84
2019-03-05T10:13:33.673Z,99387.31
2019-03-05T10:14:38.081Z,99387.97
2019-03-05T10:15:42.450Z,99386.44
2019-03-05T10:16:46.741Z,99397.27
2019-03-05T10:17:51.209Z,99391.31
2019-03-05T10:18:55.593Z,99397.69
2019-03-05T10:20:00.039Z,99401.03
2019-03-05T10:21:04.496Z,99416.58
2019-03-05T10:22:08.889Z,99402.83
2019-03-05T10:23:13.329Z,99421.71
2019-03-05T10:24:17.626Z,99427.84
2019-03-05T10:25:22.989Z,99430.96
2019-03-05T10:26:27.388Z,99418.99
2019-03-05T10:27:31.663Z,99432.41
2019-03-05T10:28:36.133Z,99428.09
2019-03-05T10:29:40.591Z,99432.61
2019-03-05T10:30:44.955Z,99437.70
2019-03-05T10:31:49.460Z,99442.89
2019-03-05T10:32:54.045Z,99444.31
2019-03-05T10:33:58.252Z,99451.75
2019-03-05T10:35:02.562Z,99447.22
2019-03-05T10:36:06.958Z,99452.13
2019-03-05T10:37:14.689Z,99450.05
2019-03-05T10:38:15.760Z,99466.30
2019-03-05T10:39:30.426Z,99455.11
2019-03-05T10:40:32.520Z,99462.08
2019-03-05T10:41:36.996Z,99468.81
2019-03-05T10:42:41.526Z,99476.05
2019-03-05T10:43:45.846Z,99467.77
2019-03-05T10:44:50.221Z,99473.88
2019-03-05T10:45:54.579Z,99477.77
2019-03-05T10:46:59.049Z,99491.05
2019-03-05T10:48:03.414Z,99479.29
2019-03-05T10:49:07.850Z,99485.49
2019-03-05T10:50:15.729Z,99488.20
2019-03-05T10:51:19.227Z,99490.97
2019-03-05T10:52:23.310Z,99500.42
2019-03-05T10:53:27.602Z,99498.95
2019-03-05T10:54:31.633Z,99504.27
2019-03-05T10:55:35.974Z,99506.51
2019-03-05T10:56:40.294Z,99512.64
2019-03-05T10:57:44.774Z,99512.56
2019-03-05T10:58:49.108Z,99511.84
2019-03-05T10:59:53.274Z,99512.81
2019-03-05T11:00:57.735Z,99524.67
2019-03-05T11:02:02.285Z,99523.00
2019-03-05T11:03:09.705Z,99522.95
2019-03-05T11:04:14.050Z,99520.73
2019-03-05T11:05:18.554Z,99527.04
2019-03-05T11:06:22.883Z,99531.83
2019-03-05T11:07:27.295Z,99531.77
2019-03-05T11:08:31.718Z,99534.50
2019-03-05T11:09:36.040Z,99538.44
2019-03-05T11:10:41.226Z,99541.55
2019-03-05T11:11:44.903Z,99545.84
2019-03-05T11:12:49.428Z,99550.94
2019-03-05T11:13:53.619Z,99554.88
2019-03-05T11:14:58.039Z,99561.78
2019-03-05T11:16:02.387Z,99553.84
2019-03-05T11:17:06.746Z,99551.28
2019-03-05T11:18:11.374Z,99566.52
2019-03-05T11:19:15.721Z,99571.55
2019-03-05T11:20:20.182Z,99568.53
2019-03-05T11:21:24.653Z,99570.91
2019-03-05T11:22:28.853Z,99579.45
2019-03-05T11:23:33.289Z,99573.87
2019-03-05T11:24:37.658Z,99573.97
2019-03-05T11:25:42.034Z,99577.47
2019-03-05T11:26:46.366Z,99581.59
2019-03-05T11:27:50.950Z,99582.21
2019-03-05T11:28:55.272Z,99584.40
2019-03-05T11:29:59.577Z,99592.02
2019-03-05T11:31:04.054Z,99589.27
2019-03-05T11:32:08.402Z,99593.17
2019-03-05T11:33:12.706Z,99594.32
2019-03-05T11:34:17.181Z,99599.53
2019-03-05T11:35:23.291Z,99597.67
2019-03-05T11:36:27.688Z,99603.16
2019-03-05T11:37:31.987Z,99600.40
2019-03-05T11:38:36.318Z,99610.64
2019-03-05T11:39:40.774Z,99611.05
2019-03-05T11:40:45.130Z,99602.50
2019-03-05T11:41:49.579Z,99609.33
2019-03-05T11:42:53.922Z,99609.75
2019-03-05T11:43:58.366Z,99610.96
2019-03-05T11:45:07.510Z,99616.11
2019-03-05T11:46:09.333Z,99624.97
2019-03-05T11:47:13.700Z,99624.34
2019-03-05T11:48:18.049Z,99630.59
2019-03-05T11:49:22.360Z,99628.66
2019-03-05T11:50:26.825Z,99625.55
2019-03-05T11:51:31.059Z,99625.96
2019-03-05T11:52:35.379Z,99631.67
2019-03-05T11:53:39.756Z,99637.75
2019-03-05T11:54:44.102Z,99644.88
2019-03-05T11:55:48.502Z,99641.16
2019-03-05T11:56:52.839Z,99641.09
2019-03-05T11:57:57.225Z,99643.53
2019-03-05T11:59:01.540Z,99651.07
2019-03-05T12:00:06.545Z,99652.93
2019-03-05T12:01:19.366Z,99656.36
2019-03-05T12:02:23.559Z,99657.19
2019-03-05T12:03:27.884Z,99643.34
2019-03-05T12:04:32.169Z,99662.95
2019-03-05T12:05:36.434Z,99656.64
2019-03-05T12:06:40.770Z,99661.39
2019-03-05T12:07:46.140Z,99659.11
2019-03-05T12:08:49.671Z,99674.98
2019-03-05T12:09:54.031Z,99675.72
2019-03-05T12:10:58.361Z,99675.63
2019-03-05T12:12:02.968Z,99674.80
2019-03-05T12:13:07.552Z,99680.05
2019-03-05T12:14:11.913Z,99684.89
2019-03-05T12:15:16.769Z,99688.33
2019-03-05T12:16:21.066Z,99687.70
2019-03-05T12:17:25.392Z,99686.25
2019-03-05T12:18:29.654Z,99691.30
2019-03-05T12:19:34.052Z,99692.94
2019-03-05T12:20:38.353Z,99697.98
2019-03-05T12:21:42.702Z,99703.23
2019-03-05T12:22:47.021Z,99704.70
2019-03-05T12:23:51.420Z,99707.91
2019-03-05T12:24:57.693Z,99712.75
2019-03-05T12:26:00.297Z,99708.84
2019-03-05T12:27:04.546Z,99715.31
2019-03-05T12:28:10.697Z,99720.77
2019-03-05T12:29:13.284Z,99718.95
2019-03-05T12:30:20.936Z,99717.19
2019-03-05T12:31:25.446Z,99722.55
2019-03-05T12:32:29.842Z,99731.61
2019-03-05T12:33:34.287Z,99729.33
2019-03-05T12:34:38.801Z,99730.29
2019-03-05T12:35:43.158Z,99735.72
2019-03-05T12:36:47.527Z,99739.78
2019-03-05T12:37:52.154Z,99743.91
2019-03-05T12:38:56.656Z,99741.25
2019-03-05T12:40:00.760Z,99739.70
2019-03-05T12:41:05.107Z,99745.15
2019-03-05T12:42:09.320Z,99747.11
2019-03-05T12:43:13.661Z,99757.14
2019-03-05T12:44:18.134Z,99754.94
2019-03-05T12:45:22.672Z,99757.63
2019-03-05T12:46:27.113Z,99756.83
2019-03-05T12:47:31.361Z,99763.82
2019-03-05T12:48:40.001Z,99761.47
2019-03-05T12:49:40.258Z,99770.46
2019-03-05T12:50:44.620Z,99777.05
2019-03-05T12:51:48.899Z,99780.45
2019-03-05T12:52:53.517Z,99774.56
2019-03-05T12:53:57.767Z,99779.53
2019-03-05T12:55:02.193Z,99774.25
2019-03-05T12:56:06.707Z,99781.48
2019-03-05T12:57:10.993Z,99781.69
2019-03-05T12:58:15.377Z,99791.60
2019-03-05T12:59:19.582Z,99782.93
2019-03-05T13:00:24.229Z,99786.52
2019-03-05T13:01:28.637Z,99794.89
2019-03-05T13:02:32.906Z,99794.56
2019-03-05T13:03:37.239Z,99800.37
2019-03-05T13:04:41.569Z,99794.03
2019-03-05T13:05:45.998Z,99800.45
2019-03-05T13:06:50.370Z,99807.61
2019-03-05T13:07:56.576Z,99798.72
2019-03-05T13:08:59.187Z,99809.88
2019-03-05T13:10:03.451Z,99815.98
2019-03-05T13:11:09.420Z,99823.59
2019-03-05T13:12:12.325Z,99816.06
2019-03-05T13:13:16.715Z,99829.41
2019-03-05T13:14:20.955Z,99826.67
2019-03-05T13:15:27.347Z,99828.09
2019-03-05T13:16:35.167Z,99829.64
2019-03-05T13:17:36.014Z,99828.38
2019-03-05T13:18:40.326Z,99836.16
2019-03-05T13:19:47.881Z,99833.59
2019-03-05T13:20:49.043Z,99838.76
2019-03-05T13:21:53.318Z,99841.95
2019-03-05T13:22:57.634Z,99840.77
2019-03-05T13:24:02.069Z,99848.51
2019-03-05T13:25:06.345Z,99852.74
2019-03-05T13:26:10.596Z,99849.75
2019-03-05T13:27:18.740Z,99857.47
2019-03-05T13:28:19.507Z,99857.63
2019-03-05T13:29:23.789Z,99859.38
2019-03-05T13:30:28.556Z,99863.89
2019-03-05T13:31:32.929Z,99861.01
2019-03-05T13:32:37.273Z,99866.38
2019-03-05T13:33:42.167Z,99870.11
2019-03-05T13:34:46.095Z,99875.76
2019-03-05T13:35:50.484Z,99875.05
2019-03-05T13:36:54.986Z,99879.52
2019-03-05T13:37:59.306Z,99879.96